sensor_id;sensor_type;location;lat;lon;timestamp;P1;durP1;ratioP1;P2;durP2;ratioP2
77085;SDS011;66014;53.134;18.006;2023-07-29T00:01:02;5.60;;;3.70;;
77085;SDS011;66014;53.134;18.006;2023-07-29T00:03:28;7.00;;;4.20;;
77085;SDS011;66014;53.134;18.006;2023-07-29T00:05:56;9.20;;;4.70;;
77085;SDS011;66014;53.134;18.006;2023-07-29T00:08:21;7.90;;;4.60;;
77085;SDS011;66014;53.134;18.006;2023-07-29T00:10:47;9.80;;;4.40;;
77085;SDS011;66014;53.134;18.006;2023-07-29T00:13:13;6.90;;;4.10;;
77085;SDS011;66014;53.134;18.006;2023-07-29T00:15:39;7.00;;;4.30;;
77085;SDS011;66014;53.134;18.006;2023-07-29T00:18:05;8.20;;;4.40;;
77085;SDS011;66014;53.134;18.006;2023-07-29T00:20:30;6.40;;;4.10;;
77085;SDS011;66014;53.134;18.006;2023-07-29T00:22:56;6.30;;;4.10;;
77085;SDS011;66014;53.134;18.006;2023-07-29T00:25:24;6.50;;;4.00;;
77085;SDS011;66014;53.134;18.006;2023-07-29T00:27:49;7.10;;;4.90;;
77085;SDS011;66014;53.134;18.006;2023-07-29T00:30:15;7.90;;;4.50;;
77085;SDS011;66014;53.134;18.006;2023-07-29T00:32:42;7.70;;;4.40;;
77085;SDS011;66014;53.134;18.006;2023-07-29T00:35:07;7.80;;;4.60;;
77085;SDS011;66014;53.134;18.006;2023-07-29T00:37:33;7.30;;;4.80;;
77085;SDS011;66014;53.134;18.006;2023-07-29T00:40:00;7.80;;;4.50;;
77085;SDS011;66014;53.134;18.006;2023-07-29T00:42:25;5.80;;;4.20;;
77085;SDS011;66014;53.134;18.006;2023-07-29T00:44:51;6.70;;;4.70;;
77085;SDS011;66014;53.134;18.006;2023-07-29T00:47:17;8.90;;;4.80;;
77085;SDS011;66014;53.134;18.006;2023-07-29T00:49:45;8.30;;;4.30;;
77085;SDS011;66014;53.134;18.006;2023-07-29T00:52:11;9.80;;;4.60;;
77085;SDS011;66014;53.134;18.006;2023-07-29T00:54:41;7.30;;;4.80;;
77085;SDS011;66014;53.134;18.006;2023-07-29T00:57:08;7.00;;;4.50;;
77085;SDS011;66014;53.134;18.006;2023-07-29T00:59:37;6.90;;;4.30;;
77085;SDS011;66014;53.134;18.006;2023-07-29T01:02:03;7.20;;;4.90;;
77085;SDS011;66014;53.134;18.006;2023-07-29T01:04:30;8.10;;;5.00;;
77085;SDS011;66014;53.134;18.006;2023-07-29T01:16:15;6.70;;;4.80;;
77085;SDS011;66014;53.134;18.006;2023-07-29T01:22:22;6.70;;;4.60;;
77085;SDS011;66014;53.134;18.006;2023-07-29T01:24:59;6.30;;;4.00;;
77085;SDS011;66014;53.134;18.006;2023-07-29T01:30:29;6.90;;;4.40;;
77085;SDS011;66014;53.134;18.006;2023-07-29T01:39:50;7.00;;;4.10;;
77085;SDS011;66014;53.134;18.006;2023-07-29T01:42:18;8.40;;;4.70;;
77085;SDS011;66014;53.134;18.006;2023-07-29T01:44:44;6.90;;;4.40;;
77085;SDS011;66014;53.134;18.006;2023-07-29T01:47:10;6.80;;;4.30;;
77085;SDS011;66014;53.134;18.006;2023-07-29T01:49:36;7.00;;;4.90;;
77085;SDS011;66014;53.134;18.006;2023-07-29T01:52:01;6.30;;;4.10;;
77085;SDS011;66014;53.134;18.006;2023-07-29T01:54:28;7.00;;;4.80;;
77085;SDS011;66014;53.134;18.006;2023-07-29T01:56:55;7.70;;;4.80;;
77085;SDS011;66014;53.134;18.006;2023-07-29T01:59:20;6.50;;;4.40;;
77085;SDS011;66014;53.134;18.006;2023-07-29T02:01:46;6.90;;;4.60;;
77085;SDS011;66014;53.134;18.006;2023-07-29T02:04:12;7.80;;;4.90;;
77085;SDS011;66014;53.134;18.006;2023-07-29T02:06:38;6.00;;;4.50;;
77085;SDS011;66014;53.134;18.006;2023-07-29T02:09:04;6.50;;;4.50;;
77085;SDS011;66014;53.134;18.006;2023-07-29T02:11:30;7.30;;;4.50;;
77085;SDS011;66014;53.134;18.006;2023-07-29T02:14:01;6.60;;;4.40;;
77085;SDS011;66014;53.134;18.006;2023-07-29T02:16:26;6.00;;;4.50;;
77085;SDS011;66014;53.134;18.006;2023-07-29T02:18:52;6.10;;;4.30;;
77085;SDS011;66014;53.134;18.006;2023-07-29T02:21:18;7.00;;;4.80;;
77085;SDS011;66014;53.134;18.006;2023-07-29T02:23:44;7.30;;;4.60;;
77085;SDS011;66014;53.134;18.006;2023-07-29T02:26:10;9.10;;;5.60;;
77085;SDS011;66014;53.134;18.006;2023-07-29T02:28:36;8.60;;;4.90;;
77085;SDS011;66014;53.134;18.006;2023-07-29T02:31:13;8.70;;;5.10;;
77085;SDS011;66014;53.134;18.006;2023-07-29T02:33:44;6.40;;;4.60;;
77085;SDS011;66014;53.134;18.006;2023-07-29T02:36:11;8.80;;;4.90;;
77085;SDS011;66014;53.134;18.006;2023-07-29T02:38:37;6.90;;;4.50;;
77085;SDS011;66014;53.134;18.006;2023-07-29T02:41:03;7.10;;;5.00;;
77085;SDS011;66014;53.134;18.006;2023-07-29T02:43:29;7.60;;;4.80;;
77085;SDS011;66014;53.134;18.006;2023-07-29T02:45:55;8.70;;;4.90;;
77085;SDS011;66014;53.134;18.006;2023-07-29T02:48:20;8.70;;;5.20;;
77085;SDS011;66014;53.134;18.006;2023-07-29T02:50:46;9.30;;;5.60;;
77085;SDS011;66014;53.134;18.006;2023-07-29T02:53:13;9.10;;;5.60;;
77085;SDS011;66014;53.134;18.006;2023-07-29T02:55:40;8.40;;;5.50;;
77085;SDS011;66014;53.134;18.006;2023-07-29T02:58:06;8.40;;;5.20;;
77085;SDS011;66014;53.134;18.006;2023-07-29T03:00:33;6.70;;;4.70;;
77085;SDS011;66014;53.134;18.006;2023-07-29T03:02:59;8.00;;;5.60;;
77085;SDS011;66014;53.134;18.006;2023-07-29T03:05:34;8.80;;;5.70;;
77085;SDS011;66014;53.134;18.006;2023-07-29T03:14:27;8.70;;;5.80;;
77085;SDS011;66014;53.134;18.006;2023-07-29T03:16:53;7.50;;;5.70;;
77085;SDS011;66014;53.134;18.006;2023-07-29T03:19:19;10.30;;;5.60;;
77085;SDS011;66014;53.134;18.006;2023-07-29T03:21:45;7.80;;;4.90;;
77085;SDS011;66014;53.134;18.006;2023-07-29T03:24:11;8.20;;;4.70;;
77085;SDS011;66014;53.134;18.006;2023-07-29T03:26:37;7.20;;;4.50;;
77085;SDS011;66014;53.134;18.006;2023-07-29T03:29:03;9.40;;;5.80;;
77085;SDS011;66014;53.134;18.006;2023-07-29T03:31:28;9.80;;;5.80;;
77085;SDS011;66014;53.134;18.006;2023-07-29T03:33:54;9.80;;;5.10;;
77085;SDS011;66014;53.134;18.006;2023-07-29T03:36:22;10.20;;;5.50;;
77085;SDS011;66014;53.134;18.006;2023-07-29T03:38:51;7.20;;;5.10;;
77085;SDS011;66014;53.134;18.006;2023-07-29T03:41:16;7.70;;;5.30;;
77085;SDS011;66014;53.134;18.006;2023-07-29T03:43:42;7.70;;;4.50;;
77085;SDS011;66014;53.134;18.006;2023-07-29T03:46:08;9.40;;;5.40;;
77085;SDS011;66014;53.134;18.006;2023-07-29T03:48:34;10.80;;;5.30;;
77085;SDS011;66014;53.134;18.006;2023-07-29T03:50:59;8.50;;;4.50;;
77085;SDS011;66014;53.134;18.006;2023-07-29T03:53:25;8.60;;;5.00;;
77085;SDS011;66014;53.134;18.006;2023-07-29T03:55:51;8.40;;;4.60;;
77085;SDS011;66014;53.134;18.006;2023-07-29T03:58:17;7.20;;;5.00;;
77085;SDS011;66014;53.134;18.006;2023-07-29T04:00:42;9.20;;;4.80;;
77085;SDS011;66014;53.134;18.006;2023-07-29T04:03:08;10.20;;;5.20;;
77085;SDS011;66014;53.134;18.006;2023-07-29T04:05:34;9.00;;;5.40;;
77085;SDS011;66014;53.134;18.006;2023-07-29T04:08:00;7.90;;;5.20;;
77085;SDS011;66014;53.134;18.006;2023-07-29T04:10:26;9.50;;;5.70;;
77085;SDS011;66014;53.134;18.006;2023-07-29T04:12:52;12.50;;;6.30;;
77085;SDS011;66014;53.134;18.006;2023-07-29T04:15:18;9.60;;;6.10;;
77085;SDS011;66014;53.134;18.006;2023-07-29T04:17:44;9.60;;;5.70;;
77085;SDS011;66014;53.134;18.006;2023-07-29T04:20:10;10.60;;;6.40;;
77085;SDS011;66014;53.134;18.006;2023-07-29T04:22:36;9.50;;;6.00;;
77085;SDS011;66014;53.134;18.006;2023-07-29T04:25:02;12.70;;;5.80;;
77085;SDS011;66014;53.134;18.006;2023-07-29T04:27:30;7.90;;;5.30;;
77085;SDS011;66014;53.134;18.006;2023-07-29T04:29:56;7.50;;;5.30;;
77085;SDS011;66014;53.134;18.006;2023-07-29T04:32:21;8.10;;;5.40;;
77085;SDS011;66014;53.134;18.006;2023-07-29T04:34:47;8.00;;;5.30;;
77085;SDS011;66014;53.134;18.006;2023-07-29T04:37:13;9.30;;;6.30;;
77085;SDS011;66014;53.134;18.006;2023-07-29T04:39:39;11.00;;;5.50;;
77085;SDS011;66014;53.134;18.006;2023-07-29T04:42:04;9.80;;;5.80;;
77085;SDS011;66014;53.134;18.006;2023-07-29T04:44:30;7.80;;;4.80;;
77085;SDS011;66014;53.134;18.006;2023-07-29T04:46:56;8.10;;;5.80;;
77085;SDS011;66014;53.134;18.006;2023-07-29T04:49:22;8.80;;;4.80;;
77085;SDS011;66014;53.134;18.006;2023-07-29T04:51:48;6.90;;;4.30;;
77085;SDS011;66014;53.134;18.006;2023-07-29T04:54:16;7.60;;;4.40;;
77085;SDS011;66014;53.134;18.006;2023-07-29T04:56:42;7.10;;;4.70;;
77085;SDS011;66014;53.134;18.006;2023-07-29T04:59:08;6.50;;;4.70;;
77085;SDS011;66014;53.134;18.006;2023-07-29T05:01:34;7.90;;;5.10;;
77085;SDS011;66014;53.134;18.006;2023-07-29T05:03:59;6.60;;;5.00;;
77085;SDS011;66014;53.134;18.006;2023-07-29T05:06:25;8.20;;;5.30;;
77085;SDS011;66014;53.134;18.006;2023-07-29T05:08:51;5.60;;;4.00;;
77085;SDS011;66014;53.134;18.006;2023-07-29T05:11:17;8.80;;;4.80;;
77085;SDS011;66014;53.134;18.006;2023-07-29T05:13:43;7.20;;;5.20;;
77085;SDS011;66014;53.134;18.006;2023-07-29T05:16:09;6.80;;;4.70;;
77085;SDS011;66014;53.134;18.006;2023-07-29T05:18:35;6.90;;;4.80;;
77085;SDS011;66014;53.134;18.006;2023-07-29T05:21:01;8.10;;;5.10;;
77085;SDS011;66014;53.134;18.006;2023-07-29T05:23:27;6.90;;;4.50;;
77085;SDS011;66014;53.134;18.006;2023-07-29T05:25:52;7.50;;;5.40;;
77085;SDS011;66014;53.134;18.006;2023-07-29T05:28:18;8.80;;;5.10;;
77085;SDS011;66014;53.134;18.006;2023-07-29T05:30:44;8.20;;;5.10;;
77085;SDS011;66014;53.134;18.006;2023-07-29T05:33:10;7.60;;;5.70;;
77085;SDS011;66014;53.134;18.006;2023-07-29T05:35:36;7.30;;;4.90;;
77085;SDS011;66014;53.134;18.006;2023-07-29T05:38:02;8.50;;;4.90;;
77085;SDS011;66014;53.134;18.006;2023-07-29T05:40:30;7.20;;;5.50;;
77085;SDS011;66014;53.134;18.006;2023-07-29T05:42:56;8.00;;;5.10;;
77085;SDS011;66014;53.134;18.006;2023-07-29T05:45:22;7.30;;;5.40;;
77085;SDS011;66014;53.134;18.006;2023-07-29T05:47:48;7.70;;;5.10;;
77085;SDS011;66014;53.134;18.006;2023-07-29T05:50:15;8.70;;;4.70;;
77085;SDS011;66014;53.134;18.006;2023-07-29T05:52:41;7.10;;;4.80;;
77085;SDS011;66014;53.134;18.006;2023-07-29T05:55:07;8.30;;;5.20;;
77085;SDS011;66014;53.134;18.006;2023-07-29T05:57:33;9.20;;;5.10;;
77085;SDS011;66014;53.134;18.006;2023-07-29T05:59:59;7.20;;;5.00;;
77085;SDS011;66014;53.134;18.006;2023-07-29T06:02:24;7.20;;;4.10;;
77085;SDS011;66014;53.134;18.006;2023-07-29T06:04:50;5.70;;;4.10;;
77085;SDS011;66014;53.134;18.006;2023-07-29T06:07:16;5.40;;;3.90;;
77085;SDS011;66014;53.134;18.006;2023-07-29T06:09:42;6.10;;;4.00;;
77085;SDS011;66014;53.134;18.006;2023-07-29T06:12:08;5.80;;;3.30;;
77085;SDS011;66014;53.134;18.006;2023-07-29T06:14:33;5.60;;;3.70;;
77085;SDS011;66014;53.134;18.006;2023-07-29T06:16:59;4.70;;;3.10;;
77085;SDS011;66014;53.134;18.006;2023-07-29T06:19:26;6.30;;;3.30;;
77085;SDS011;66014;53.134;18.006;2023-07-29T06:21:52;5.20;;;3.70;;
77085;SDS011;66014;53.134;18.006;2023-07-29T06:24:21;4.80;;;3.30;;
77085;SDS011;66014;53.134;18.006;2023-07-29T06:26:47;4.70;;;2.90;;
77085;SDS011;66014;53.134;18.006;2023-07-29T06:29:13;4.30;;;3.00;;
77085;SDS011;66014;53.134;18.006;2023-07-29T06:31:39;5.20;;;3.00;;
77085;SDS011;66014;53.134;18.006;2023-07-29T06:34:05;3.40;;;2.60;;
77085;SDS011;66014;53.134;18.006;2023-07-29T06:36:30;4.30;;;3.20;;
77085;SDS011;66014;53.134;18.006;2023-07-29T06:38:59;4.20;;;3.00;;
77085;SDS011;66014;53.134;18.006;2023-07-29T06:41:25;6.70;;;2.50;;
77085;SDS011;66014;53.134;18.006;2023-07-29T06:43:51;5.30;;;2.70;;
77085;SDS011;66014;53.134;18.006;2023-07-29T06:46:17;3.90;;;2.30;;
77085;SDS011;66014;53.134;18.006;2023-07-29T06:48:43;4.00;;;2.60;;
77085;SDS011;66014;53.134;18.006;2023-07-29T06:51:09;3.60;;;2.40;;
77085;SDS011;66014;53.134;18.006;2023-07-29T06:53:34;3.80;;;2.20;;
77085;SDS011;66014;53.134;18.006;2023-07-29T06:56:00;2.90;;;2.00;;
77085;SDS011;66014;53.134;18.006;2023-07-29T06:58:26;2.60;;;1.60;;
77085;SDS011;66014;53.134;18.006;2023-07-29T07:00:52;2.50;;;1.80;;
77085;SDS011;66014;53.134;18.006;2023-07-29T07:03:18;4.40;;;2.10;;
77085;SDS011;66014;53.134;18.006;2023-07-29T07:05:45;3.80;;;1.80;;
77085;SDS011;66014;53.134;18.006;2023-07-29T07:08:10;3.80;;;1.70;;
77085;SDS011;66014;53.134;18.006;2023-07-29T07:10:36;3.80;;;1.80;;
77085;SDS011;66014;53.134;18.006;2023-07-29T07:13:02;2.70;;;1.60;;
77085;SDS011;66014;53.134;18.006;2023-07-29T07:15:28;2.40;;;1.40;;
77085;SDS011;66014;53.134;18.006;2023-07-29T07:17:54;2.50;;;1.50;;
77085;SDS011;66014;53.134;18.006;2023-07-29T07:20:20;2.60;;;1.80;;
77085;SDS011;66014;53.134;18.006;2023-07-29T07:22:45;2.20;;;1.20;;
77085;SDS011;66014;53.134;18.006;2023-07-29T07:25:11;1.90;;;1.30;;
77085;SDS011;66014;53.134;18.006;2023-07-29T07:27:37;2.50;;;1.50;;
77085;SDS011;66014;53.134;18.006;2023-07-29T07:30:08;2.50;;;1.60;;
77085;SDS011;66014;53.134;18.006;2023-07-29T07:32:34;3.00;;;1.90;;
77085;SDS011;66014;53.134;18.006;2023-07-29T07:35:00;3.00;;;1.50;;
77085;SDS011;66014;53.134;18.006;2023-07-29T07:37:26;2.90;;;1.40;;
77085;SDS011;66014;53.134;18.006;2023-07-29T07:39:52;2.10;;;1.20;;
77085;SDS011;66014;53.134;18.006;2023-07-29T07:42:17;2.40;;;1.10;;
77085;SDS011;66014;53.134;18.006;2023-07-29T07:44:43;2.50;;;1.20;;
77085;SDS011;66014;53.134;18.006;2023-07-29T07:47:09;2.10;;;1.20;;
77085;SDS011;66014;53.134;18.006;2023-07-29T07:49:35;2.60;;;1.40;;
77085;SDS011;66014;53.134;18.006;2023-07-29T07:52:00;2.30;;;1.30;;
77085;SDS011;66014;53.134;18.006;2023-07-29T07:54:26;2.40;;;1.40;;
77085;SDS011;66014;53.134;18.006;2023-07-29T07:56:52;2.80;;;1.30;;
77085;SDS011;66014;53.134;18.006;2023-07-29T07:59:18;1.40;;;1.00;;
77085;SDS011;66014;53.134;18.006;2023-07-29T08:01:45;2.70;;;1.30;;
77085;SDS011;66014;53.134;18.006;2023-07-29T08:04:10;3.40;;;1.20;;
77085;SDS011;66014;53.134;18.006;2023-07-29T08:06:36;1.90;;;1.20;;
77085;SDS011;66014;53.134;18.006;2023-07-29T08:09:02;5.00;;;1.40;;
77085;SDS011;66014;53.134;18.006;2023-07-29T08:11:29;2.10;;;1.10;;
77085;SDS011;66014;53.134;18.006;2023-07-29T08:14:00;3.20;;;1.00;;
77085;SDS011;66014;53.134;18.006;2023-07-29T08:16:26;2.00;;;1.10;;
77085;SDS011;66014;53.134;18.006;2023-07-29T08:18:52;1.80;;;1.00;;
77085;SDS011;66014;53.134;18.006;2023-07-29T08:21:18;2.40;;;1.20;;
77085;SDS011;66014;53.134;18.006;2023-07-29T08:23:48;2.50;;;1.20;;
77085;SDS011;66014;53.134;18.006;2023-07-29T08:26:14;1.90;;;1.10;;
77085;SDS011;66014;53.134;18.006;2023-07-29T08:28:40;3.40;;;2.70;;
77085;SDS011;66014;53.134;18.006;2023-07-29T08:31:06;5.50;;;1.10;;
77085;SDS011;66014;53.134;18.006;2023-07-29T08:33:35;1.60;;;1.00;;
77085;SDS011;66014;53.134;18.006;2023-07-29T08:36:01;2.00;;;1.10;;
77085;SDS011;66014;53.134;18.006;2023-07-29T08:38:28;3.30;;;1.40;;
77085;SDS011;66014;53.134;18.006;2023-07-29T08:43:59;1.60;;;1.00;;
77085;SDS011;66014;53.134;18.006;2023-07-29T08:46:36;1.80;;;1.00;;
77085;SDS011;66014;53.134;18.006;2023-07-29T08:49:02;1.70;;;1.00;;
77085;SDS011;66014;53.134;18.006;2023-07-29T08:51:29;2.10;;;1.10;;
77085;SDS011;66014;53.134;18.006;2023-07-29T08:53:58;3.10;;;1.40;;
77085;SDS011;66014;53.134;18.006;2023-07-29T08:56:25;2.10;;;1.10;;
77085;SDS011;66014;53.134;18.006;2023-07-29T08:58:53;2.20;;;1.10;;
77085;SDS011;66014;53.134;18.006;2023-07-29T09:01:20;1.90;;;1.10;;
77085;SDS011;66014;53.134;18.006;2023-07-29T09:03:46;2.80;;;1.10;;
77085;SDS011;66014;53.134;18.006;2023-07-29T09:06:11;2.20;;;1.10;;
77085;SDS011;66014;53.134;18.006;2023-07-29T09:08:40;2.20;;;1.20;;
77085;SDS011;66014;53.134;18.006;2023-07-29T09:11:07;2.00;;;1.20;;
77085;SDS011;66014;53.134;18.006;2023-07-29T09:13:37;2.30;;;0.90;;
77085;SDS011;66014;53.134;18.006;2023-07-29T09:16:03;2.10;;;1.20;;
77085;SDS011;66014;53.134;18.006;2023-07-29T09:18:30;3.80;;;1.30;;
77085;SDS011;66014;53.134;18.006;2023-07-29T09:20:58;1.60;;;1.00;;
77085;SDS011;66014;53.134;18.006;2023-07-29T09:23:27;2.30;;;1.00;;
77085;SDS011;66014;53.134;18.006;2023-07-29T09:26:00;1.70;;;1.00;;
77085;SDS011;66014;53.134;18.006;2023-07-29T09:28:28;1.90;;;0.90;;
77085;SDS011;66014;53.134;18.006;2023-07-29T09:31:02;2.30;;;1.10;;
77085;SDS011;66014;53.134;18.006;2023-07-29T09:33:32;2.10;;;1.00;;
77085;SDS011;66014;53.134;18.006;2023-07-29T09:36:08;2.00;;;1.00;;
77085;SDS011;66014;53.134;18.006;2023-07-29T09:38:35;2.10;;;1.00;;
77085;SDS011;66014;53.134;18.006;2023-07-29T09:41:04;2.50;;;0.90;;
77085;SDS011;66014;53.134;18.006;2023-07-29T09:43:32;2.40;;;1.00;;
77085;SDS011;66014;53.134;18.006;2023-07-29T09:46:03;2.30;;;1.00;;
77085;SDS011;66014;53.134;18.006;2023-07-29T09:48:36;1.60;;;1.00;;
77085;SDS011;66014;53.134;18.006;2023-07-29T09:51:10;1.70;;;1.00;;
77085;SDS011;66014;53.134;18.006;2023-07-29T09:53:43;2.30;;;0.80;;
77085;SDS011;66014;53.134;18.006;2023-07-29T09:56:12;1.30;;;0.90;;
77085;SDS011;66014;53.134;18.006;2023-07-29T09:58:42;1.80;;;1.10;;
77085;SDS011;66014;53.134;18.006;2023-07-29T10:01:12;1.90;;;1.00;;
77085;SDS011;66014;53.134;18.006;2023-07-29T10:03:39;2.10;;;1.10;;
77085;SDS011;66014;53.134;18.006;2023-07-29T10:06:06;1.80;;;1.00;;
77085;SDS011;66014;53.134;18.006;2023-07-29T10:08:33;1.60;;;0.90;;
77085;SDS011;66014;53.134;18.006;2023-07-29T10:11:08;1.50;;;0.90;;
77085;SDS011;66014;53.134;18.006;2023-07-29T10:13:36;2.20;;;1.00;;
77085;SDS011;66014;53.134;18.006;2023-07-29T10:18:58;1.40;;;0.70;;
77085;SDS011;66014;53.134;18.006;2023-07-29T10:21:25;1.70;;;1.10;;
77085;SDS011;66014;53.134;18.006;2023-07-29T10:23:52;1.60;;;1.00;;
77085;SDS011;66014;53.134;18.006;2023-07-29T10:26:23;2.00;;;0.80;;
77085;SDS011;66014;53.134;18.006;2023-07-29T10:28:52;2.50;;;1.00;;
77085;SDS011;66014;53.134;18.006;2023-07-29T10:31:20;1.90;;;1.00;;
77085;SDS011;66014;53.134;18.006;2023-07-29T10:33:48;1.90;;;0.80;;
77085;SDS011;66014;53.134;18.006;2023-07-29T10:36:14;1.80;;;1.00;;
77085;SDS011;66014;53.134;18.006;2023-07-29T10:38:42;2.20;;;0.80;;
77085;SDS011;66014;53.134;18.006;2023-07-29T10:41:09;1.50;;;0.80;;
77085;SDS011;66014;53.134;18.006;2023-07-29T10:43:36;1.70;;;0.90;;
77085;SDS011;66014;53.134;18.006;2023-07-29T10:46:22;1.90;;;1.00;;
77085;SDS011;66014;53.134;18.006;2023-07-29T10:51:31;2.80;;;0.90;;
77085;SDS011;66014;53.134;18.006;2023-07-29T10:54:21;2.60;;;1.00;;
77085;SDS011;66014;53.134;18.006;2023-07-29T10:56:47;1.90;;;0.80;;
77085;SDS011;66014;53.134;18.006;2023-07-29T11:01:53;1.00;;;0.60;;
77085;SDS011;66014;53.134;18.006;2023-07-29T11:04:23;1.40;;;0.70;;
77085;SDS011;66014;53.134;18.006;2023-07-29T11:09:42;1.10;;;0.70;;
77085;SDS011;66014;53.134;18.006;2023-07-29T11:15:12;1.50;;;0.80;;
77085;SDS011;66014;53.134;18.006;2023-07-29T11:20:14;1.70;;;0.90;;
77085;SDS011;66014;53.134;18.006;2023-07-29T11:22:41;1.40;;;0.80;;
77085;SDS011;66014;53.134;18.006;2023-07-29T11:25:08;1.50;;;0.80;;
77085;SDS011;66014;53.134;18.006;2023-07-29T11:27:36;1.50;;;0.80;;
77085;SDS011;66014;53.134;18.006;2023-07-29T11:30:06;1.90;;;0.90;;
77085;SDS011;66014;53.134;18.006;2023-07-29T11:32:35;1.40;;;0.80;;
77085;SDS011;66014;53.134;18.006;2023-07-29T11:35:07;2.40;;;0.80;;
77085;SDS011;66014;53.134;18.006;2023-07-29T11:37:36;1.00;;;0.60;;
77085;SDS011;66014;53.134;18.006;2023-07-29T11:40:03;1.70;;;1.00;;
77085;SDS011;66014;53.134;18.006;2023-07-29T11:42:31;1.90;;;0.80;;
77085;SDS011;66014;53.134;18.006;2023-07-29T11:45:02;3.40;;;0.80;;
77085;SDS011;66014;53.134;18.006;2023-07-29T11:47:30;2.00;;;0.80;;
77085;SDS011;66014;53.134;18.006;2023-07-29T11:49:59;1.60;;;0.80;;
77085;SDS011;66014;53.134;18.006;2023-07-29T11:52:26;2.20;;;0.80;;
77085;SDS011;66014;53.134;18.006;2023-07-29T11:54:54;1.80;;;0.90;;
77085;SDS011;66014;53.134;18.006;2023-07-29T11:57:20;1.80;;;0.90;;
77085;SDS011;66014;53.134;18.006;2023-07-29T11:59:46;1.30;;;0.80;;
77085;SDS011;66014;53.134;18.006;2023-07-29T12:02:13;1.40;;;0.80;;
77085;SDS011;66014;53.134;18.006;2023-07-29T12:04:41;1.20;;;0.60;;
77085;SDS011;66014;53.134;18.006;2023-07-29T12:07:08;2.00;;;1.10;;
77085;SDS011;66014;53.134;18.006;2023-07-29T12:09:35;2.80;;;0.80;;
77085;SDS011;66014;53.134;18.006;2023-07-29T12:12:03;1.50;;;0.80;;
77085;SDS011;66014;53.134;18.006;2023-07-29T12:14:30;2.20;;;0.90;;
77085;SDS011;66014;53.134;18.006;2023-07-29T12:17:19;1.90;;;0.80;;
77085;SDS011;66014;53.134;18.006;2023-07-29T12:19:45;1.70;;;1.00;;
77085;SDS011;66014;53.134;18.006;2023-07-29T12:22:23;1.30;;;0.80;;
77085;SDS011;66014;53.134;18.006;2023-07-29T12:24:50;1.80;;;1.10;;
77085;SDS011;66014;53.134;18.006;2023-07-29T12:27:19;1.70;;;1.00;;
77085;SDS011;66014;53.134;18.006;2023-07-29T12:29:48;2.10;;;0.90;;
77085;SDS011;66014;53.134;18.006;2023-07-29T12:32:17;2.40;;;1.00;;
77085;SDS011;66014;53.134;18.006;2023-07-29T12:34:44;1.50;;;0.90;;
77085;SDS011;66014;53.134;18.006;2023-07-29T12:37:10;1.80;;;1.20;;
77085;SDS011;66014;53.134;18.006;2023-07-29T12:39:40;2.90;;;1.10;;
77085;SDS011;66014;53.134;18.006;2023-07-29T12:42:09;2.00;;;1.10;;
77085;SDS011;66014;53.134;18.006;2023-07-29T12:44:35;4.00;;;1.20;;
77085;SDS011;66014;53.134;18.006;2023-07-29T12:47:23;2.00;;;1.20;;
77085;SDS011;66014;53.134;18.006;2023-07-29T12:56:53;2.70;;;1.20;;
77085;SDS011;66014;53.134;18.006;2023-07-29T12:59:33;2.30;;;1.40;;
77085;SDS011;66014;53.134;18.006;2023-07-29T13:02:02;1.80;;;1.00;;
77085;SDS011;66014;53.134;18.006;2023-07-29T13:04:28;2.30;;;1.30;;
77085;SDS011;66014;53.134;18.006;2023-07-29T13:06:53;2.40;;;1.30;;
77085;SDS011;66014;53.134;18.006;2023-07-29T13:15:58;2.70;;;1.60;;
77085;SDS011;66014;53.134;18.006;2023-07-29T13:18:27;3.20;;;1.40;;
77085;SDS011;66014;53.134;18.006;2023-07-29T13:21:07;2.40;;;1.30;;
77085;SDS011;66014;53.134;18.006;2023-07-29T13:23:33;2.40;;;1.50;;
77085;SDS011;66014;53.134;18.006;2023-07-29T13:26:04;2.10;;;1.30;;
77085;SDS011;66014;53.134;18.006;2023-07-29T13:28:55;4.70;;;1.70;;
77085;SDS011;66014;53.134;18.006;2023-07-29T13:31:21;2.00;;;1.20;;
77085;SDS011;66014;53.134;18.006;2023-07-29T13:33:52;1.90;;;1.20;;
77085;SDS011;66014;53.134;18.006;2023-07-29T13:36:29;2.80;;;1.50;;
77085;SDS011;66014;53.134;18.006;2023-07-29T13:38:57;1.90;;;1.20;;
77085;SDS011;66014;53.134;18.006;2023-07-29T13:41:27;3.80;;;1.30;;
77085;SDS011;66014;53.134;18.006;2023-07-29T13:43:53;2.70;;;1.30;;
77085;SDS011;66014;53.134;18.006;2023-07-29T13:46:21;2.30;;;1.50;;
77085;SDS011;66014;53.134;18.006;2023-07-29T13:48:47;2.40;;;1.30;;
77085;SDS011;66014;53.134;18.006;2023-07-29T13:51:17;3.20;;;1.60;;
77085;SDS011;66014;53.134;18.006;2023-07-29T13:53:43;2.70;;;1.40;;
77085;SDS011;66014;53.134;18.006;2023-07-29T13:56:09;2.60;;;1.40;;
77085;SDS011;66014;53.134;18.006;2023-07-29T13:58:36;2.40;;;1.40;;
77085;SDS011;66014;53.134;18.006;2023-07-29T14:01:02;3.00;;;1.70;;
77085;SDS011;66014;53.134;18.006;2023-07-29T14:03:27;2.60;;;1.30;;
77085;SDS011;66014;53.134;18.006;2023-07-29T14:05:56;3.50;;;1.60;;
77085;SDS011;66014;53.134;18.006;2023-07-29T14:08:28;2.30;;;1.50;;
77085;SDS011;66014;53.134;18.006;2023-07-29T14:10:57;2.30;;;1.40;;
77085;SDS011;66014;53.134;18.006;2023-07-29T14:13:24;5.00;;;1.60;;
77085;SDS011;66014;53.134;18.006;2023-07-29T14:15:50;2.60;;;1.50;;
77085;SDS011;66014;53.134;18.006;2023-07-29T14:18:16;2.90;;;1.90;;
77085;SDS011;66014;53.134;18.006;2023-07-29T14:20:41;2.60;;;1.50;;
77085;SDS011;66014;53.134;18.006;2023-07-29T14:23:07;2.60;;;1.50;;
77085;SDS011;66014;53.134;18.006;2023-07-29T14:25:33;2.10;;;1.20;;
77085;SDS011;66014;53.134;18.006;2023-07-29T14:27:59;2.60;;;1.60;;
77085;SDS011;66014;53.134;18.006;2023-07-29T14:30:25;2.90;;;1.60;;
77085;SDS011;66014;53.134;18.006;2023-07-29T14:32:51;3.10;;;1.50;;
77085;SDS011;66014;53.134;18.006;2023-07-29T14:35:17;2.20;;;1.40;;
77085;SDS011;66014;53.134;18.006;2023-07-29T14:37:43;2.90;;;1.40;;
77085;SDS011;66014;53.134;18.006;2023-07-29T14:40:09;2.90;;;1.50;;
77085;SDS011;66014;53.134;18.006;2023-07-29T14:42:35;4.00;;;1.70;;
77085;SDS011;66014;53.134;18.006;2023-07-29T14:45:01;3.60;;;1.60;;
77085;SDS011;66014;53.134;18.006;2023-07-29T14:47:27;3.70;;;1.60;;
77085;SDS011;66014;53.134;18.006;2023-07-29T14:49:54;2.40;;;1.70;;
77085;SDS011;66014;53.134;18.006;2023-07-29T14:52:20;2.40;;;1.60;;
77085;SDS011;66014;53.134;18.006;2023-07-29T14:54:46;3.90;;;1.80;;
77085;SDS011;66014;53.134;18.006;2023-07-29T14:57:12;3.90;;;1.80;;
77085;SDS011;66014;53.134;18.006;2023-07-29T14:59:38;2.80;;;1.80;;
77085;SDS011;66014;53.134;18.006;2023-07-29T15:02:04;3.20;;;1.60;;
77085;SDS011;66014;53.134;18.006;2023-07-29T15:04:31;2.50;;;1.40;;
77085;SDS011;66014;53.134;18.006;2023-07-29T15:06:57;2.60;;;1.60;;
77085;SDS011;66014;53.134;18.006;2023-07-29T15:09:23;2.80;;;1.50;;
77085;SDS011;66014;53.134;18.006;2023-07-29T15:11:49;2.60;;;1.50;;
77085;SDS011;66014;53.134;18.006;2023-07-29T15:14:15;3.40;;;1.80;;
77085;SDS011;66014;53.134;18.006;2023-07-29T15:16:42;3.20;;;2.30;;
77085;SDS011;66014;53.134;18.006;2023-07-29T15:19:07;2.90;;;1.90;;
77085;SDS011;66014;53.134;18.006;2023-07-29T15:21:33;3.80;;;1.80;;
77085;SDS011;66014;53.134;18.006;2023-07-29T15:24:01;3.60;;;2.40;;
77085;SDS011;66014;53.134;18.006;2023-07-29T15:26:27;3.20;;;1.90;;
77085;SDS011;66014;53.134;18.006;2023-07-29T15:28:54;3.40;;;2.00;;
77085;SDS011;66014;53.134;18.006;2023-07-29T15:31:19;4.30;;;1.70;;
77085;SDS011;66014;53.134;18.006;2023-07-29T15:33:45;3.40;;;1.80;;
77085;SDS011;66014;53.134;18.006;2023-07-29T15:36:13;2.90;;;1.80;;